Time;durP1;ratioP1;P1;durP2;ratioP2;P2;SDS_P1;SDS_P2;PMS_P1;PMS_P2;Temp;Humidity;BMP_temperature;BMP_pressure;BME280_temperature;BME280_humidity;BME280_pressure;Samples;Min_cycle;Max_cycle;Signal;HPM_P1;HPM_P2
2021/11/10 00:02:07;;;;;;;8.93;4.47;;;7.60;99.90;;;;;;5052304;28;20032;-84
2021/11/10 00:04:33;;;;;;;7.50;4.07;;;7.60;99.90;;;;;;5035296;28;20033;-85
2021/11/10 00:06:59;;;;;;;8.40;4.03;;;7.50;99.90;;;;;;5035432;28;20442;-84
2021/11/10 00:09:25;;;;;;;9.50;4.17;;;7.50;99.90;;;;;;5050643;28;20131;-84
2021/11/10 00:11:53;;;;;;;9.30;4.20;;;7.50;99.90;;;;;;5055540;28;20069;-84
2021/11/10 00:14:19;;;;;;;8.70;4.40;;;7.50;99.90;;;;;;5038990;28;20159;-84
2021/11/10 00:16:45;;;;;;;8.87;4.20;;;7.50;99.90;;;;;;5055688;28;20103;-84
2021/11/10 00:19:11;;;;;;;8.00;3.70;;;7.40;99.90;;;;;;5039371;28;20457;-84
2021/11/10 00:21:36;;;;;;;8.47;4.10;;;7.40;99.90;;;;;;5039609;28;20037;-84
2021/11/10 00:24:03;;;;;;;9.57;4.23;;;7.40;99.90;;;;;;5055557;28;20032;-84
2021/11/10 00:26:28;;;;;;;8.90;4.77;;;7.40;99.90;;;;;;5056016;28;20059;-85
2021/11/10 00:28:54;;;;;;;10.90;4.20;;;7.30;99.90;;;;;;5037891;28;20036;-85
2021/11/10 00:31:20;;;;;;;9.40;4.10;;;7.20;99.90;;;;;;5038647;28;20112;-84
2021/11/10 00:33:47;;;;;;;11.17;4.23;;;7.10;99.90;;;;;;5038312;28;20034;-85
2021/11/10 00:36:14;;;;;;;9.37;4.07;;;7.10;99.90;;;;;;5071622;28;20540;-85
2021/11/10 00:38:39;;;;;;;8.20;4.20;;;7.00;99.90;;;;;;5054598;28;20130;-84
2021/11/10 00:41:06;;;;;;;8.67;3.67;;;6.80;99.90;;;;;;5038084;28;20036;-85
2021/11/10 00:43:32;;;;;;;9.63;4.27;;;6.80;99.90;;;;;;5038088;28;20028;-84
2021/11/10 00:45:59;;;;;;;13.20;4.83;;;6.70;99.90;;;;;;5071601;28;20401;-84
2021/11/10 00:48:25;;;;;;;10.10;4.50;;;6.60;99.90;;;;;;5054687;28;20446;-84
2021/11/10 00:50:51;;;;;;;10.90;4.70;;;6.60;99.90;;;;;;5054445;28;20032;-84
2021/11/10 00:53:18;;;;;;;11.07;4.40;;;6.50;99.90;;;;;;5037852;28;20051;-85
2021/11/10 00:55:45;;;;;;;11.47;4.50;;;6.50;99.90;;;;;;5055281;28;20021;-84
2021/11/10 00:58:11;;;;;;;10.07;4.30;;;6.60;99.90;;;;;;5038213;28;20767;-84
2021/11/10 01:00:38;;;;;;;7.83;4.00;;;6.60;99.90;;;;;;5037828;28;20092;-85
2021/11/10 01:03:05;;;;;;;7.87;4.07;;;6.70;99.90;;;;;;5071370;28;20123;-84
2021/11/10 01:05:33;;;;;;;11.33;4.30;;;6.70;99.90;;;;;;5054777;28;20043;-84
2021/11/10 01:08:00;;;;;;;8.83;4.23;;;6.80;99.90;;;;;;5054229;28;20384;-84
2021/11/10 01:10:26;;;;;;;9.23;4.70;;;6.60;99.90;;;;;;5053930;28;20021;-84
2021/11/10 01:12:52;;;;;;;10.13;4.30;;;6.50;99.90;;;;;;5037732;28;20165;-84
2021/11/10 01:15:19;;;;;;;9.27;4.20;;;6.50;99.90;;;;;;5054551;28;20037;-84
2021/11/10 01:17:47;;;;;;;12.40;4.27;;;6.50;99.90;;;;;;5054527;28;20025;-84
2021/11/10 01:20:14;;;;;;;10.17;4.80;;;6.50;99.90;;;;;;5037389;28;20523;-84
2021/11/10 01:22:41;;;;;;;9.10;3.93;;;6.50;99.90;;;;;;5053576;28;20056;-85
2021/11/10 01:25:08;;;;;;;8.37;3.87;;;6.50;99.90;;;;;;5053942;28;20145;-84
2021/11/10 01:27:35;;;;;;;8.90;3.87;;;6.60;99.90;;;;;;5037770;28;20024;-84
2021/11/10 01:30:01;;;;;;;10.30;3.90;;;6.60;99.90;;;;;;5036932;28;20036;-84
2021/11/10 01:32:27;;;;;;;8.03;3.90;;;6.50;99.90;;;;;;5037436;28;20033;-84
2021/11/10 01:34:54;;;;;;;9.80;4.23;;;6.50;99.90;;;;;;5037436;28;20070;-85
2021/11/10 01:37:20;;;;;;;8.40;4.00;;;6.50;99.90;;;;;;5054201;28;20503;-84
2021/11/10 01:39:47;;;;;;;9.43;4.50;;;6.50;99.90;;;;;;5036630;28;20115;-84
2021/11/10 01:42:18;;;;;;;8.67;3.93;;;6.60;99.90;;;;;;5038360;28;20032;-84
2021/11/10 01:44:48;;;;;;;9.67;3.80;;;6.50;99.90;;;;;;5037904;28;20056;-84
2021/11/10 01:47:14;;;;;;;9.10;3.90;;;6.50;99.90;;;;;;5038264;28;20182;-84
2021/11/10 01:49:43;;;;;;;7.57;3.57;;;6.50;99.90;;;;;;5053242;28;20027;-84
2021/11/10 01:52:10;;;;;;;9.47;4.13;;;6.40;99.90;;;;;;5054049;28;20055;-84
2021/11/10 01:54:39;;;;;;;7.73;3.87;;;6.50;99.90;;;;;;5053404;28;20112;-84
2021/11/10 01:57:10;;;;;;;6.73;3.80;;;6.60;99.90;;;;;;5070583;28;20029;-85
2021/11/10 01:59:42;;;;;;;9.75;4.07;;;6.60;99.90;;;;;;5069802;28;20024;-84
2021/11/10 02:02:19;;;;;;;9.60;3.80;;;6.60;99.90;;;;;;5073809;28;20033;-84
2021/11/10 02:04:47;;;;;;;9.40;4.10;;;6.70;99.90;;;;;;5074439;28;20020;-85
2021/11/10 02:07:14;;;;;;;8.73;3.97;;;6.70;99.90;;;;;;5040580;28;20043;-85
2021/11/10 02:09:43;;;;;;;7.10;3.40;;;6.70;99.90;;;;;;5052327;28;20454;-85
2021/11/10 02:12:09;;;;;;;8.27;3.87;;;6.70;99.90;;;;;;5053499;28;20520;-84
2021/11/10 02:14:41;;;;;;;8.43;4.07;;;6.70;99.90;;;;;;5037296;28;20038;-85
2021/11/10 02:17:19;;;;;;;8.30;3.77;;;6.70;99.90;;;;;;5069692;28;20507;-84
2021/11/10 02:19:48;;;;;;;7.03;3.60;;;6.70;99.90;;;;;;5052797;28;20029;-84
2021/11/10 02:22:21;;;;;;;10.57;3.70;;;6.70;99.90;;;;;;5069535;28;20020;-85
2021/11/10 02:24:51;;;;;;;8.07;3.97;;;6.70;99.90;;;;;;5036192;28;20028;-84
2021/11/10 02:27:21;;;;;;;11.20;3.92;;;6.70;99.90;;;;;;5036880;28;20119;-84
2021/11/10 02:29:49;;;;;;;5.87;3.47;;;6.70;99.90;;;;;;5035963;28;20112;-85
2021/11/10 02:32:16;;;;;;;11.37;3.60;;;6.70;99.90;;;;;;5069752;28;20048;-84
2021/11/10 02:34:44;;;;;;;7.53;3.70;;;6.70;99.90;;;;;;5035535;28;20089;-85
2021/11/10 02:37:12;;;;;;;8.90;3.50;;;6.70;99.90;;;;;;5053360;28;20452;-84
2021/11/10 02:39:38;;;;;;;10.60;3.70;;;6.70;99.90;;;;;;5052200;28;20024;-84
2021/11/10 02:42:05;;;;;;;8.07;3.90;;;6.70;99.90;;;;;;5036454;28;20603;-85
2021/11/10 02:44:34;;;;;;;12.40;4.27;;;6.70;99.90;;;;;;5036435;28;20059;-85
2021/11/10 02:47:00;;;;;;;10.07;3.90;;;6.50;99.90;;;;;;5053078;28;20044;-84
2021/11/10 02:49:27;;;;;;;7.80;3.63;;;6.60;99.90;;;;;;5052380;28;20029;-84
2021/11/10 02:51:59;;;;;;;9.07;3.83;;;6.60;99.90;;;;;;5036994;28;20029;-84
2021/11/10 02:54:26;;;;;;;11.27;3.87;;;6.50;99.90;;;;;;5054056;28;20051;-84
2021/11/10 02:56:57;;;;;;;8.97;3.80;;;6.30;99.90;;;;;;5054677;28;20034;-84
2021/11/10 02:59:23;;;;;;;9.50;4.10;;;6.30;99.90;;;;;;5053962;28;20043;-84
2021/11/10 03:01:51;;;;;;;7.27;4.10;;;6.30;99.90;;;;;;5071175;28;20392;-84
2021/11/10 03:04:22;;;;;;;10.07;3.93;;;6.30;99.90;;;;;;5052757;28;20388;-85
2021/11/10 03:06:51;;;;;;;9.63;4.20;;;6.20;99.90;;;;;;5052731;28;20039;-84
2021/11/10 03:09:24;;;;;;;8.80;4.10;;;6.10;99.90;;;;;;5051593;28;20075;-84
2021/11/10 03:11:54;;;;;;;9.50;4.80;;;6.20;99.90;;;;;;5036354;28;20032;-84
2021/11/10 03:14:20;;;;;;;9.23;4.00;;;6.30;99.90;;;;;;5052368;28;20024;-84
2021/11/10 03:16:46;;;;;;;7.63;3.43;;;6.30;99.90;;;;;;5036005;28;20101;-85
2021/11/10 03:19:13;;;;;;;7.60;3.80;;;6.30;99.90;;;;;;5035336;28;20062;-85
2021/11/10 03:21:41;;;;;;;7.23;3.87;;;6.30;99.90;;;;;;5036058;28;20103;-85
2021/11/10 03:24:07;;;;;;;9.00;4.10;;;6.20;99.90;;;;;;5036467;28;20416;-83
2021/11/10 03:26:34;;;;;;;9.77;3.97;;;6.30;99.90;;;;;;5052136;28;20044;-84
2021/11/10 03:29:03;;;;;;;6.53;3.63;;;6.30;99.90;;;;;;5034935;28;20040;-85
2021/11/10 03:31:32;;;;;;;6.23;3.53;;;6.20;99.90;;;;;;5068901;28;20031;-84
2021/11/10 03:33:59;;;;;;;7.87;3.47;;;6.20;99.90;;;;;;5051813;28;20028;-83
2021/11/10 03:36:30;;;;;;;7.43;3.57;;;6.30;99.90;;;;;;5068751;28;20449;-84
2021/11/10 03:38:56;;;;;;;8.33;3.90;;;6.30;99.90;;;;;;5033436;28;20032;-85
2021/11/10 03:41:22;;;;;;;8.77;4.63;;;6.30;99.90;;;;;;5051724;28;20044;-84
2021/11/10 03:43:52;;;;;;;8.03;4.30;;;6.20;99.90;;;;;;5051917;28;20032;-84
2021/11/10 03:46:21;;;;;;;10.07;4.50;;;6.30;99.90;;;;;;5038519;28;20062;-84
2021/11/10 03:48:48;;;;;;;13.00;4.13;;;6.30;99.90;;;;;;5038994;28;20123;-84
2021/11/10 03:51:16;;;;;;;6.78;3.60;;;6.20;99.90;;;;;;5055631;28;20440;-84
2021/11/10 03:53:44;;;;;;;7.30;3.83;;;6.20;99.90;;;;;;5039233;28;20086;-84
2021/11/10 03:56:11;;;;;;;7.43;3.80;;;6.30;99.90;;;;;;5055808;28;20566;-85
2021/11/10 03:58:37;;;;;;;9.13;4.03;;;6.20;99.90;;;;;;5072091;28;20032;-84
2021/11/10 04:01:05;;;;;;;10.20;3.93;;;6.30;99.90;;;;;;5073142;28;20035;-84
2021/11/10 04:03:32;;;;;;;8.43;3.93;;;6.40;99.90;;;;;;5038900;28;20435;-83
2021/11/10 04:05:59;;;;;;;11.43;4.70;;;6.30;99.90;;;;;;5040698;28;20036;-83
2021/11/10 04:08:27;;;;;;;8.57;4.00;;;6.30;99.90;;;;;;5056763;28;20492;-83
2021/11/10 04:10:55;;;;;;;9.83;4.17;;;6.30;99.90;;;;;;5039684;28;20056;-84
2021/11/10 04:13:23;;;;;;;9.15;3.92;;;6.30;99.90;;;;;;5055975;28;20552;-84
2021/11/10 04:15:50;;;;;;;12.10;4.20;;;6.20;99.90;;;;;;5039882;28;20081;-84
2021/11/10 04:18:16;;;;;;;7.13;3.87;;;6.30;99.90;;;;;;5056174;28;20151;-84
2021/11/10 04:20:45;;;;;;;9.52;4.07;;;6.30;99.90;;;;;;5039879;28;20473;-84
2021/11/10 04:23:12;;;;;;;11.47;4.20;;;6.30;99.90;;;;;;5072328;28;20400;-84
2021/11/10 04:25:38;;;;;;;10.37;4.10;;;6.30;99.90;;;;;;5055855;28;20032;-86
2021/11/10 04:28:05;;;;;;;8.97;4.40;;;6.20;99.90;;;;;;5055240;28;20086;-85
2021/11/10 04:30:34;;;;;;;10.13;4.47;;;6.30;99.90;;;;;;5054880;28;20427;-85
2021/11/10 04:33:00;;;;;;;12.50;4.10;;;6.30;99.90;;;;;;5039157;28;20035;-84
2021/11/10 04:35:26;;;;;;;8.70;4.00;;;6.20;99.90;;;;;;5039309;28;20058;-84
2021/11/10 04:37:54;;;;;;;9.20;4.27;;;6.10;99.90;;;;;;5055347;28;20116;-84
2021/11/10 04:40:20;;;;;;;9.37;4.27;;;6.10;99.90;;;;;;5051809;28;20025;-83
2021/11/10 04:42:46;;;;;;;10.83;4.60;;;6.10;99.90;;;;;;5055589;28;20067;-84
2021/11/10 04:45:27;;;;;;;7.50;4.27;;;6.20;99.90;;;;;;5042780;28;20032;-84
2021/11/10 04:47:53;;;;;;;8.43;4.53;;;6.20;99.90;;;;;;5031354;28;20086;-85
2021/11/10 04:50:19;;;;;;;9.17;4.27;;;6.20;99.90;;;;;;5018622;28;20029;-84
2021/11/10 04:52:46;;;;;;;7.83;4.27;;;6.20;99.90;;;;;;5035127;28;20044;-84
2021/11/10 04:55:12;;;;;;;7.57;4.20;;;6.20;99.90;;;;;;5019326;28;20029;-85
2021/11/10 04:57:39;;;;;;;8.20;3.93;;;6.10;99.90;;;;;;5019001;28;20060;-84
2021/11/10 05:00:06;;;;;;;11.73;4.80;;;6.00;99.90;;;;;;5035082;28;20036;-85
2021/11/10 05:02:38;;;;;;;9.90;5.00;;;6.00;99.90;;;;;;5035771;28;20029;-84
2021/11/10 05:05:04;;;;;;;9.33;4.57;;;6.00;99.90;;;;;;5019906;28;20385;-84
2021/11/10 05:07:31;;;;;;;11.10;5.20;;;5.90;99.90;;;;;;5035717;28;20493;-84
2021/11/10 05:09:58;;;;;;;11.43;5.27;;;5.80;99.90;;;;;;5034775;28;20124;-84
2021/11/10 05:12:25;;;;;;;12.17;4.90;;;5.80;99.90;;;;;;5018905;28;20116;-84
2021/11/10 05:14:53;;;;;;;9.27;4.60;;;5.90;99.90;;;;;;5019026;28;20033;-83
2021/11/10 05:17:20;;;;;;;9.43;4.60;;;5.90;99.90;;;;;;5035582;28;20052;-84
2021/11/10 05:19:47;;;;;;;12.47;5.07;;;5.80;99.90;;;;;;5052471;28;20029;-85
2021/11/10 05:22:14;;;;;;;10.30;5.00;;;5.80;99.90;;;;;;5037257;28;20029;-84
2021/11/10 05:24:40;;;;;;;10.87;5.03;;;5.70;99.90;;;;;;5019244;28;20063;-84
2021/11/10 05:27:06;;;;;;;9.10;4.63;;;5.70;99.90;;;;;;5037417;28;20430;-85
2021/11/10 05:29:32;;;;;;;9.33;5.40;;;5.70;99.90;;;;;;5059691;28;20053;-83
2021/11/10 05:31:58;;;;;;;11.03;5.27;;;5.70;99.90;;;;;;5051974;28;20032;-84
2021/11/10 05:34:24;;;;;;;11.73;5.40;;;5.70;99.90;;;;;;5018234;28;20076;-84
2021/11/10 05:36:51;;;;;;;10.73;5.30;;;5.60;99.90;;;;;;5036406;28;20048;-85
2021/11/10 05:39:17;;;;;;;10.33;5.13;;;5.60;99.90;;;;;;5052264;28;20050;-83
2021/11/10 05:41:44;;;;;;;10.70;4.93;;;5.60;99.90;;;;;;5019859;28;20464;-84
2021/11/10 05:44:11;;;;;;;11.50;5.30;;;5.60;99.90;;;;;;5019564;28;20031;-84
2021/11/10 05:46:37;;;;;;;9.13;5.37;;;5.60;99.90;;;;;;5036205;28;20033;-85
2021/11/10 05:49:03;;;;;;;10.03;5.60;;;5.60;99.90;;;;;;5018548;28;20373;-85
2021/11/10 05:51:30;;;;;;;11.67;5.60;;;5.50;99.90;;;;;;5036127;28;20025;-84
2021/11/10 05:53:57;;;;;;;13.03;7.23;;;5.50;99.90;;;;;;5019896;28;20040;-85
2021/11/10 05:56:25;;;;;;;14.63;7.40;;;5.50;99.90;;;;;;5023068;28;20033;-85
2021/11/10 05:58:57;;;;;;;12.87;6.50;;;5.40;99.90;;;;;;5038244;28;20039;-84
2021/11/10 06:01:23;;;;;;;11.03;6.23;;;5.40;99.90;;;;;;5041596;28;20040;-84
2021/11/10 06:03:49;;;;;;;11.60;6.00;;;5.50;99.90;;;;;;5024501;28;20037;-85
2021/11/10 06:06:15;;;;;;;11.67;6.40;;;5.50;99.90;;;;;;5018625;28;20068;-84
2021/11/10 06:08:41;;;;;;;12.70;5.33;;;5.60;99.90;;;;;;5033687;28;20068;-84
2021/11/10 06:11:09;;;;;;;10.20;5.53;;;5.50;99.90;;;;;;5017663;28;20033;-84
2021/11/10 06:13:35;;;;;;;11.40;5.77;;;5.50;99.90;;;;;;5017893;28;20032;-84
2021/11/10 06:16:01;;;;;;;10.43;5.60;;;5.40;99.90;;;;;;5034187;28;20029;-84
2021/11/10 06:18:29;;;;;;;11.73;5.77;;;5.30;99.90;;;;;;5051548;28;20036;-85
2021/11/10 06:20:56;;;;;;;12.83;5.53;;;5.30;99.90;;;;;;5034119;28;20037;-84
2021/11/10 06:23:21;;;;;;;10.40;5.50;;;5.30;99.90;;;;;;5033913;28;20040;-84
2021/11/10 06:25:48;;;;;;;10.73;5.60;;;5.30;99.90;;;;;;5017636;28;20104;-83
2021/11/10 06:28:14;;;;;;;14.40;7.00;;;5.30;99.90;;;;;;5017289;28;20039;-84
2021/11/10 06:30:41;;;;;;;18.13;7.00;;;5.30;99.90;;;;;;5033521;28;20025;-83
2021/11/10 06:33:07;;;;;;;13.97;6.70;;;5.20;99.90;;;;;;5018188;28;20481;-85
2021/11/10 06:35:33;;;;;;;10.17;5.50;;;5.20;99.90;;;;;;5034010;28;20029;-85
2021/11/10 06:37:59;;;;;;;14.07;6.60;;;5.20;99.90;;;;;;5032990;28;20060;-84
2021/11/10 06:40:24;;;;;;;11.63;6.20;;;5.20;99.90;;;;;;5016696;28;20052;-85
2021/11/10 06:42:51;;;;;;;12.20;6.07;;;5.20;99.90;;;;;;5019354;28;20119;-87
2021/11/10 06:45:17;;;;;;;14.27;7.20;;;5.20;99.90;;;;;;5049281;28;20498;-87
2021/11/10 06:47:43;;;;;;;20.70;6.90;;;5.20;99.90;;;;;;5051157;28;20417;-84
2021/11/10 06:50:09;;;;;;;21.57;6.53;;;5.20;99.90;;;;;;5016120;28;20025;-84
2021/11/10 06:52:36;;;;;;;13.93;6.53;;;5.10;99.90;;;;;;5016704;28;20060;-84
2021/11/10 06:55:03;;;;;;;13.70;6.63;;;5.20;99.90;;;;;;5016333;28;20032;-84
2021/11/10 06:57:30;;;;;;;16.47;6.77;;;5.20;99.90;;;;;;5016717;28;20033;-84
2021/11/10 06:59:57;;;;;;;12.23;6.37;;;5.10;99.90;;;;;;5015574;28;20044;-84
2021/11/10 07:02:23;;;;;;;13.83;6.30;;;5.10;99.90;;;;;;5033298;28;20396;-84
2021/11/10 07:04:48;;;;;;;13.33;6.63;;;5.10;99.90;;;;;;5053107;28;20089;-84
2021/11/10 07:07:14;;;;;;;14.87;5.70;;;5.10;99.90;;;;;;5052581;28;20090;-84
2021/11/10 07:09:40;;;;;;;13.00;6.33;;;5.10;99.90;;;;;;5052167;28;20390;-84
2021/11/10 07:12:07;;;;;;;13.50;6.23;;;5.20;99.90;;;;;;5072161;28;20104;-86
2021/11/10 07:14:32;;;;;;;13.30;6.60;;;5.10;99.90;;;;;;5054445;28;20485;-83
2021/11/10 07:16:58;;;;;;;14.07;6.40;;;5.20;99.90;;;;;;5054129;28;20036;-85
2021/11/10 07:19:24;;;;;;;13.93;6.10;;;5.30;99.90;;;;;;5056133;28;20432;-83
2021/11/10 07:21:50;;;;;;;13.37;6.13;;;5.30;99.90;;;;;;5071850;28;20040;-85
2021/11/10 07:24:16;;;;;;;12.10;6.20;;;5.20;99.90;;;;;;5043324;28;20082;-86
2021/11/10 07:26:42;;;;;;;15.20;7.07;;;5.30;99.90;;;;;;5072549;28;20036;-86
2021/11/10 07:29:08;;;;;;;12.90;6.63;;;5.20;99.90;;;;;;5030267;28;20374;-85
2021/11/10 07:31:34;;;;;;;15.50;6.67;;;5.00;99.90;;;;;;5061778;28;20040;-85
2021/11/10 07:34:01;;;;;;;12.50;6.77;;;5.00;99.90;;;;;;5045655;28;20138;-85
2021/11/10 07:36:28;;;;;;;14.10;6.93;;;5.00;99.90;;;;;;5022732;28;20124;-87
2021/11/10 07:38:57;;;;;;;14.13;6.70;;;5.00;99.90;;;;;;5020486;28;20568;-83
2021/11/10 07:41:27;;;;;;;15.20;6.40;;;5.10;99.90;;;;;;5039225;28;20059;-84
2021/11/10 07:43:54;;;;;;;17.67;7.13;;;5.20;99.90;;;;;;5038828;28;20036;-84
2021/11/10 07:46:21;;;;;;;14.80;6.33;;;5.20;99.90;;;;;;5042017;23;20475;-85
2021/11/10 07:48:47;;;;;;;18.03;7.20;;;5.30;99.90;;;;;;5020066;28;20044;-81
2021/11/10 07:51:14;;;;;;;18.90;7.00;;;5.40;99.90;;;;;;5015517;28;20464;-84
2021/11/10 07:53:40;;;;;;;19.70;8.03;;;5.50;99.90;;;;;;5013387;28;20117;-85
2021/11/10 07:56:06;;;;;;;22.87;7.77;;;5.60;99.90;;;;;;5016000;28;20117;-84
2021/11/10 07:58:33;;;;;;;16.77;6.37;;;5.60;99.90;;;;;;5002380;28;20022;-86
2021/11/10 08:00:59;;;;;;;12.97;6.83;;;5.70;99.90;;;;;;5001779;28;20042;-83
2021/11/10 08:03:25;;;;;;;14.93;6.23;;;5.70;99.90;;;;;;4985111;28;20033;-84
2021/11/10 08:05:51;;;;;;;15.53;6.40;;;5.70;99.90;;;;;;5001881;28;20180;-84
2021/11/10 08:08:17;;;;;;;14.73;6.33;;;5.70;99.90;;;;;;4984979;28;20034;-84
2021/11/10 08:10:43;;;;;;;19.20;6.80;;;5.70;99.90;;;;;;4984526;28;20151;-84
2021/11/10 08:13:09;;;;;;;20.20;6.60;;;5.70;99.90;;;;;;5001858;28;20026;-83
2021/11/10 08:15:36;;;;;;;21.43;6.90;;;5.80;99.90;;;;;;5000784;28;20061;-82
2021/11/10 08:18:03;;;;;;;14.87;6.37;;;5.80;99.90;;;;;;5001004;28;20072;-82
2021/11/10 08:20:28;;;;;;;16.97;7.20;;;5.80;99.90;;;;;;5018096;28;20034;-81
2021/11/10 08:22:55;;;;;;;22.60;7.60;;;5.80;99.90;;;;;;4984080;28;20041;-82
2021/11/10 08:25:21;;;;;;;14.73;7.40;;;5.70;99.90;;;;;;4982244;28;20398;-81
2021/11/10 08:27:47;;;;;;;17.00;7.60;;;5.70;99.90;;;;;;4998177;28;20443;-81
2021/11/10 08:30:17;;;;;;;18.50;7.47;;;5.80;99.90;;;;;;4998222;28;20475;-80
2021/11/10 08:32:43;;;;;;;;;;;5.80;99.90;;;;;;5016806;28;20029;-82
2021/11/10 08:35:09;;;;;;;15.27;6.90;;;5.70;99.90;;;;;;5014036;28;19910;-81
2021/11/10 08:37:36;;;;;;;15.50;7.07;;;5.60;99.90;;;;;;4997981;28;20370;-80
2021/11/10 08:40:03;;;;;;;12.00;6.03;;;5.70;99.90;;;;;;4995696;28;20146;-80
2021/11/10 08:42:35;;;;;;;13.10;6.93;;;5.70;99.90;;;;;;5014106;28;20041;-80
2021/11/10 08:45:05;;;;;;;14.87;6.33;;;5.70;99.90;;;;;;5014451;28;20034;-83
2021/11/10 08:47:31;;;;;;;14.27;6.87;;;5.70;99.90;;;;;;4997020;28;20144;-80
2021/11/10 08:49:58;;;;;;;11.80;6.87;;;5.80;99.90;;;;;;4996306;28;20398;-79
2021/11/10 08:52:27;;;;;;;15.73;6.90;;;5.80;99.90;;;;;;5014382;28;20038;-80
2021/11/10 08:54:52;;;;;;;13.43;6.45;;;5.90;99.90;;;;;;4995855;28;20034;-80
2021/11/10 08:57:18;;;;;;;14.00;7.03;;;5.90;99.90;;;;;;5014339;28;20101;-78
2021/11/10 08:59:44;;;;;;;12.67;6.97;;;6.00;99.90;;;;;;4996487;28;20030;-77
2021/11/10 09:02:10;;;;;;;14.40;6.43;;;6.00;99.90;;;;;;5015524;28;20116;-78
2021/11/10 09:04:36;;;;;;;15.93;6.93;;;6.10;99.90;;;;;;5014545;28;20117;-78
2021/11/10 09:07:03;;;;;;;16.97;6.97;;;6.10;99.90;;;;;;5014328;28;20026;-78
2021/11/10 09:09:28;;;;;;;15.70;7.00;;;6.10;99.90;;;;;;4995967;28;20080;-77
2021/11/10 09:11:54;;;;;;;13.30;6.50;;;6.20;99.90;;;;;;5014434;28;20033;-78
2021/11/10 09:14:20;;;;;;;14.63;6.67;;;6.30;99.90;;;;;;5014500;28;20137;-79
2021/11/10 09:16:47;;;;;;;15.60;7.27;;;6.30;99.90;;;;;;5014838;28;20157;-78
2021/11/10 09:19:13;;;;;;;12.23;6.93;;;6.40;99.90;;;;;;4998230;28;20145;-82
2021/11/10 09:21:39;;;;;;;18.10;6.47;;;6.40;99.90;;;;;;4984362;28;20459;-82
2021/11/10 09:24:06;;;;;;;14.37;6.67;;;6.50;99.90;;;;;;4999120;28;20033;-81
2021/11/10 09:26:32;;;;;;;12.50;5.87;;;6.50;99.90;;;;;;5014365;28;20026;-77
2021/11/10 09:28:58;;;;;;;16.00;6.13;;;6.60;99.90;;;;;;4995278;28;20034;-78
2021/11/10 09:31:24;;;;;;;12.37;6.57;;;6.70;99.90;;;;;;4995723;28;20028;-79
2021/11/10 09:33:56;;;;;;;12.83;6.53;;;6.70;99.90;;;;;;5013902;28;20022;-77
2021/11/10 09:36:22;;;;;;;13.20;6.47;;;6.80;99.90;;;;;;4996414;28;20032;-78
2021/11/10 09:38:49;;;;;;;11.63;6.70;;;6.90;99.90;;;;;;5013381;28;20456;-77
2021/11/10 09:41:15;;;;;;;11.80;6.03;;;6.90;99.90;;;;;;4980752;28;20057;-78
2021/11/10 09:43:42;;;;;;;13.63;6.73;;;7.00;99.90;;;;;;5016009;28;20030;-77
2021/11/10 09:46:12;;;;;;;17.27;6.30;;;7.00;99.90;;;;;;4999093;28;20049;-79
2021/11/10 09:48:38;;;;;;;15.63;6.57;;;7.10;99.90;;;;;;4999784;28;20038;-80
2021/11/10 09:51:05;;;;;;;13.10;6.40;;;7.10;99.90;;;;;;5015948;28;20481;-78
2021/11/10 09:53:32;;;;;;;14.03;5.97;;;7.20;99.90;;;;;;4997666;28;20038;-80
2021/11/10 09:55:59;;;;;;;15.03;6.47;;;7.20;99.90;;;;;;4997972;28;20056;-79
2021/11/10 09:58:26;;;;;;;14.23;6.70;;;7.30;99.90;;;;;;4997993;28;20038;-79
2021/11/10 10:00:58;;;;;;;13.30;6.90;;;7.30;99.90;;;;;;5015376;28;20048;-79
2021/11/10 10:03:24;;;;;;;16.90;7.50;;;7.40;99.90;;;;;;5016890;28;20029;-79
2021/11/10 10:05:53;;;;;;;12.10;6.67;;;7.40;99.90;;;;;;5016623;28;20481;-80
2021/11/10 10:08:21;;;;;;;14.30;7.93;;;7.50;99.90;;;;;;4998283;28;20067;-80
2021/11/10 10:10:48;;;;;;;14.00;7.53;;;7.50;99.90;;;;;;4997976;28;20087;-80
2021/11/10 10:13:16;;;;;;;18.40;9.03;;;7.60;99.90;;;;;;4996861;28;20080;-80
2021/11/10 10:15:43;;;;;;;16.47;8.17;;;7.60;99.90;;;;;;4980710;28;20167;-82
2021/11/10 10:18:29;;;;;;;14.17;8.17;;;7.70;99.90;;;;;;5007253;28;20034;-80
2021/11/10 10:20:58;;;;;;;15.67;8.80;;;7.70;99.90;;;;;;4994164;28;20114;-79
2021/11/10 10:23:30;;;;;;;15.43;8.93;;;7.80;99.90;;;;;;4993248;28;20034;-80
2021/11/10 10:26:17;;;;;;;14.87;8.73;;;7.70;99.90;;;;;;4977317;28;20506;-81
2021/11/10 10:28:58;;;;;;;16.87;8.70;;;7.80;99.90;;;;;;4967214;28;20043;-79
2021/11/10 10:31:26;;;;;;;19.77;8.97;;;7.90;99.90;;;;;;5007048;28;20054;-81
2021/11/10 10:33:57;;;;;;;17.77;9.50;;;7.90;99.90;;;;;;5012622;28;20041;-80
2021/11/10 10:36:28;;;;;;;20.03;9.90;;;7.90;99.90;;;;;;4994881;28;20343;-80
2021/11/10 10:39:00;;;;;;;18.63;9.57;;;8.00;99.90;;;;;;5011500;28;20522;-80
2021/11/10 10:41:35;;;;;;;18.00;9.27;;;8.00;99.90;;;;;;5012317;28;20041;-80
2021/11/10 10:44:16;;;;;;;18.20;9.50;;;8.10;99.90;;;;;;4994333;28;20044;-80
2021/11/10 10:47:03;;;;;;;19.67;9.67;;;8.10;99.90;;;;;;5011460;28;20144;-80
2021/11/10 10:49:40;;;;;;;18.23;8.97;;;8.20;99.90;;;;;;5010862;28;20033;-79
2021/11/10 10:52:13;;;;;;;15.50;9.50;;;8.20;99.90;;;;;;5011507;28;20169;-80
2021/11/10 10:54:41;;;;;;;14.93;8.83;;;8.20;99.90;;;;;;5010270;28;20030;-82
2021/11/10 10:57:09;;;;;;;17.07;9.57;;;8.30;99.90;;;;;;5013992;28;20025;-82
2021/11/10 10:59:35;;;;;;;15.13;8.33;;;8.40;99.90;;;;;;4993749;28;20079;-80
2021/11/10 11:02:03;;;;;;;16.47;9.03;;;8.40;99.90;;;;;;5013563;28;20057;-80
2021/11/10 11:04:32;;;;;;;17.80;9.07;;;8.40;99.90;;;;;;5000153;28;20380;-82
2021/11/10 11:07:06;;;;;;;19.33;9.47;;;8.50;99.90;;;;;;4992650;28;20458;-81
2021/11/10 11:09:41;;;;;;;15.97;8.87;;;8.50;99.90;;;;;;4991490;28;20615;-83
2021/11/10 11:12:42;;;;;;;16.50;8.47;;;8.50;99.90;;;;;;4992717;28;20034;-80
2021/11/10 11:17:52;;;;;;;15.93;8.17;;;8.60;99.90;;;;;;4995162;28;20053;-81
2021/11/10 11:20:20;;;;;;;26.67;10.53;;;8.60;99.90;;;;;;4977836;28;20034;-81
2021/11/10 11:22:46;;;;;;;33.63;11.37;;;8.70;99.90;;;;;;4997882;28;20510;-81
2021/11/10 11:25:22;;;;;;;30.97;10.80;;;8.70;99.90;;;;;;4996705;28;20022;-81
2021/11/10 11:27:59;;;;;;;21.07;10.13;;;8.70;99.90;;;;;;4979448;28;20502;-81
2021/11/10 11:30:31;;;;;;;19.07;10.07;;;8.80;99.90;;;;;;4995426;28;20034;-81
2021/11/10 11:33:00;;;;;;;17.07;8.10;;;8.80;99.90;;;;;;4996290;28;20034;-81
2021/11/10 11:35:40;;;;;;;18.38;8.45;;;8.80;99.90;;;;;;4996333;28;20058;-80
2021/11/10 11:38:10;;;;;;;21.57;8.07;;;8.80;99.90;;;;;;4995357;28;20061;-80
2021/11/10 11:40:36;;;;;;;20.80;8.40;;;8.90;99.90;;;;;;4995008;28;20491;-80
2021/11/10 11:43:05;;;;;;;15.80;7.77;;;8.90;99.90;;;;;;4995674;28;20050;-81
2021/11/10 11:45:33;;;;;;;;;;;8.80;99.90;;;;;;4978253;28;20342;-83
2021/11/10 11:48:00;;;;;;;11.07;6.70;;;8.80;99.90;;;;;;4994494;28;20354;-81
2021/11/10 11:50:27;;;;;;;15.73;8.13;;;8.80;99.90;;;;;;4976565;28;20547;-82
2021/11/10 11:52:53;;;;;;;16.83;8.37;;;8.80;99.90;;;;;;4996566;28;20041;-82
2021/11/10 11:55:29;;;;;;;15.57;7.60;;;8.80;99.90;;;;;;4994602;28;20490;-81
2021/11/10 11:58:07;;;;;;;12.77;8.20;;;8.80;99.90;;;;;;4992476;28;20046;-79
2021/11/10 12:00:57;;;;;;;18.17;8.20;;;8.80;99.90;;;;;;4991682;28;20030;-79
2021/11/10 12:03:28;;;;;;;21.07;8.67;;;8.80;99.90;;;;;;4992124;28;20031;-79
2021/11/10 12:06:17;;;;;;;17.20;8.00;;;8.80;99.90;;;;;;4975379;28;20438;-79
2021/11/10 12:08:46;;;;;;;;;;;8.80;99.90;;;;;;4978557;28;20045;-79
2021/11/10 12:11:26;;;;;;;14.10;7.33;;;8.80;99.90;;;;;;4995311;28;19910;-80
2021/11/10 12:14:04;;;;;;;17.93;8.70;;;8.80;99.90;;;;;;4995741;28;20284;-79
2021/11/10 12:16:48;;;;;;;15.20;8.47;;;8.80;99.90;;;;;;4995928;28;20031;-79
2021/11/10 12:19:41;;;;;;;14.37;8.13;;;8.80;99.90;;;;;;4994812;28;20134;-79
2021/11/10 12:22:08;;;;;;;18.83;9.13;;;8.80;99.90;;;;;;4995526;28;20026;-79
2021/11/10 12:24:46;;;;;;;18.07;8.63;;;8.80;99.90;;;;;;4995178;28;20041;-80
2021/11/10 12:27:37;;;;;;;18.58;8.38;;;8.80;99.90;;;;;;4993938;28;20545;-79
2021/11/10 12:30:42;;;;;;;16.93;8.13;;;8.80;99.90;;;;;;4969829;28;20039;-80
2021/11/10 12:33:08;;;;;;;16.40;8.73;;;8.80;99.90;;;;;;4916779;29;20036;-80
2021/11/10 12:35:44;;;;;;;18.07;8.63;;;8.90;99.90;;;;;;5000858;28;20112;-79
2021/11/10 12:38:23;;;;;;;19.67;8.57;;;8.90;99.90;;;;;;4997842;28;20029;-80
2021/11/10 12:40:52;;;;;;;18.35;8.82;;;8.90;99.90;;;;;;4997746;28;20038;-79
2021/11/10 12:43:20;;;;;;;;;;;8.90;99.90;;;;;;5015761;28;20471;-80
2021/11/10 12:46:02;;;;;;;19.30;8.77;;;8.90;99.90;;;;;;5015321;28;20004;-80
2021/11/10 12:48:46;;;;;;;17.63;9.47;;;9.00;99.90;;;;;;5015211;28;20037;-81
2021/11/10 12:51:29;;;;;;;32.17;9.40;;;9.00;99.90;;;;;;4998409;28;20424;-80
2021/11/10 12:54:06;;;;;;;18.77;9.30;;;9.00;99.90;;;;;;4997531;28;20120;-80
2021/11/10 12:56:53;;;;;;;19.43;9.10;;;9.00;99.90;;;;;;4997500;28;20036;-81
2021/11/10 12:59:37;;;;;;;20.73;9.40;;;9.10;99.90;;;;;;5014584;28;20044;-80
2021/11/10 13:02:11;;;;;;;20.33;9.47;;;9.10;99.90;;;;;;5014809;28;20056;-81